Time;durP1;ratioP1;P1;durP2;ratioP2;P2;SDS_P1;SDS_P2;PMS_P1;PMS_P2;Temp;Humidity;BMP_temperature;BMP_pressure;BME280_temperature;BME280_humidity;BME280_pressure;Samples;Min_cycle;Max_cycle;Signal;HPM_P1;HPM_P2
2021/10/16 00:00:44;;;;;;;15.05;4.07;;;;;;;;;;5074299;28;20488;-64
2021/10/16 00:03:09;;;;;;;17.08;5.28;;;;;;;;;;5081515;28;20023;-65
2021/10/16 00:05:34;;;;;;;17.15;4.40;;;;;;;;;;5084550;28;20031;-64
2021/10/16 00:07:59;;;;;;;13.07;4.53;;;;;;;;;;5081085;28;20024;-65
2021/10/16 00:10:25;;;;;;;18.67;6.07;;;;;;;;;;5077063;28;20495;-64
2021/10/16 00:12:50;;;;;;;9.43;3.92;;;;;;;;;;5079245;28;20081;-64
2021/10/16 00:15:15;;;;;;;10.95;4.28;;;;;;;;;;5092930;28;20032;-65
2021/10/16 00:17:40;;;;;;;21.48;4.60;;;;;;;;;;5087020;28;20024;-64
2021/10/16 00:20:06;;;;;;;10.75;4.28;;;;;;;;;;5072560;28;20028;-65
2021/10/16 00:22:31;;;;;;;16.00;4.75;;;;;;;;;;5078309;28;20031;-66
2021/10/16 00:24:57;;;;;;;16.95;4.90;;;;;;;;;;5072278;28;20052;-65
2021/10/16 00:27:22;;;;;;;18.67;6.03;;;;;;;;;;5074347;28;20435;-65
2021/10/16 00:29:47;;;;;;;13.13;4.23;;;;;;;;;;5073670;28;20040;-65
2021/10/16 00:32:12;;;;;;;12.30;3.85;;;;;;;;;;5052413;28;20256;-65
2021/10/16 00:34:37;;;;;;;15.82;4.60;;;;;;;;;;5062012;28;20020;-64
2021/10/16 00:37:03;;;;;;;8.85;3.83;;;;;;;;;;5091933;28;20095;-64
2021/10/16 00:39:28;;;;;;;12.10;3.95;;;;;;;;;;5072127;28;20028;-65
2021/10/16 00:41:53;;;;;;;10.57;5.28;;;;;;;;;;5080450;28;20024;-64
2021/10/16 00:44:22;;;;;;;19.02;4.70;;;;;;;;;;5092839;28;20026;-65
2021/10/16 00:46:47;;;;;;;16.77;4.88;;;;;;;;;;5091099;28;20019;-65
2021/10/16 00:49:13;;;;;;;14.13;5.97;;;;;;;;;;5079078;28;20099;-64
2021/10/16 00:51:38;;;;;;;9.38;3.50;;;;;;;;;;5092134;28;20476;-65
2021/10/16 00:54:07;;;;;;;14.60;4.38;;;;;;;;;;5085399;28;20115;-64
2021/10/16 00:56:32;;;;;;;12.63;4.50;;;;;;;;;;5090546;28;20028;-64
2021/10/16 00:58:57;;;;;;;14.27;3.92;;;;;;;;;;5078412;28;20042;-65
2021/10/16 01:01:23;;;;;;;20.25;4.13;;;;;;;;;;5071576;28;20027;-64
2021/10/16 01:03:48;;;;;;;19.10;4.28;;;;;;;;;;5072765;28;20040;-64
2021/10/16 01:06:13;;;;;;;15.65;4.35;;;;;;;;;;5073060;28;20028;-65
2021/10/16 01:08:39;;;;;;;15.35;3.95;;;;;;;;;;5071607;28;20103;-65
2021/10/16 01:11:05;;;;;;;13.00;4.38;;;;;;;;;;5074018;28;20033;-65
2021/10/16 01:13:31;;;;;;;16.25;4.88;;;;;;;;;;5074398;28;20020;-64
2021/10/16 01:15:56;;;;;;;21.48;4.57;;;;;;;;;;5077643;28;20036;-64
2021/10/16 01:18:22;;;;;;;17.35;4.35;;;;;;;;;;5060433;28;20099;-65
2021/10/16 01:20:48;;;;;;;12.20;4.13;;;;;;;;;;5071278;28;20032;-65
2021/10/16 01:23:14;;;;;;;16.13;4.35;;;;;;;;;;5072486;28;20012;-63
2021/10/16 01:25:39;;;;;;;16.83;4.13;;;;;;;;;;5079518;28;20035;-63
2021/10/16 01:28:05;;;;;;;12.70;4.22;;;;;;;;;;5086471;28;20016;-65
2021/10/16 01:30:30;;;;;;;17.88;4.38;;;;;;;;;;5084567;28;20473;-63
2021/10/16 01:32:55;;;;;;;18.20;4.00;;;;;;;;;;5091336;28;20016;-64
2021/10/16 01:35:20;;;;;;;12.13;3.90;;;;;;;;;;5083183;28;20031;-63
2021/10/16 01:37:47;;;;;;;19.65;4.03;;;;;;;;;;5070586;28;20446;-64
2021/10/16 01:40:14;;;;;;;8.57;3.95;;;;;;;;;;5074175;28;20023;-63
2021/10/16 01:42:42;;;;;;;9.95;3.83;;;;;;;;;;5084816;28;20031;-63
2021/10/16 01:45:11;;;;;;;12.00;3.58;;;;;;;;;;5085835;28;20024;-64
2021/10/16 01:47:50;;;;;;;11.50;3.37;;;;;;;;;;5089461;28;20024;-64
2021/10/16 01:50:16;;;;;;;11.10;3.45;;;;;;;;;;5085857;28;20021;-64
2021/10/16 01:52:41;;;;;;;20.83;4.25;;;;;;;;;;5071456;28;20380;-63
2021/10/16 01:55:07;;;;;;;25.17;3.80;;;;;;;;;;5071029;28;20035;-64
2021/10/16 01:57:32;;;;;;;18.75;4.53;;;;;;;;;;5081649;28;20472;-64
2021/10/16 01:59:57;;;;;;;7.97;3.30;;;;;;;;;;5087795;28;20542;-64
2021/10/16 02:02:22;;;;;;;10.63;3.90;;;;;;;;;;5070539;28;20024;-63
2021/10/16 02:04:47;;;;;;;12.55;4.35;;;;;;;;;;5072991;28;20096;-63
2021/10/16 02:07:12;;;;;;;12.88;3.90;;;;;;;;;;5072376;28;20020;-63
2021/10/16 02:09:38;;;;;;;14.07;3.95;;;;;;;;;;5077152;28;20050;-64
2021/10/16 02:12:03;;;;;;;16.23;4.10;;;;;;;;;;5089991;28;20024;-63
2021/10/16 02:14:28;;;;;;;13.52;4.75;;;;;;;;;;5083350;28;20039;-67
2021/10/16 02:16:53;;;;;;;8.88;4.00;;;;;;;;;;5070158;28;20050;-63
2021/10/16 02:19:18;;;;;;;12.82;3.72;;;;;;;;;;5072569;28;20099;-65
2021/10/16 02:21:44;;;;;;;10.10;4.03;;;;;;;;;;5074404;28;20027;-64
2021/10/16 02:24:09;;;;;;;12.73;3.97;;;;;;;;;;5082601;28;20381;-65
2021/10/16 02:26:34;;;;;;;17.73;4.32;;;;;;;;;;5086139;28;20011;-63
2021/10/16 02:28:59;;;;;;;19.75;4.03;;;;;;;;;;5069965;28;20027;-65
2021/10/16 02:31:24;;;;;;;8.82;4.03;;;;;;;;;;5071515;28;20036;-63
2021/10/16 02:33:50;;;;;;;12.13;3.83;;;;;;;;;;5088605;28;20085;-64
2021/10/16 02:36:15;;;;;;;13.73;3.83;;;;;;;;;;5072592;28;20040;-65
2021/10/16 02:38:40;;;;;;;14.98;5.75;;;;;;;;;;5070840;28;20028;-64
2021/10/16 02:41:05;;;;;;;10.98;3.35;;;;;;;;;;5069723;28;20540;-63
2021/10/16 02:43:31;;;;;;;11.25;4.35;;;;;;;;;;5074286;28;20072;-64
2021/10/16 02:45:56;;;;;;;15.70;3.60;;;;;;;;;;5089504;28;20024;-63
2021/10/16 02:48:21;;;;;;;13.30;3.78;;;;;;;;;;5071445;28;20021;-63
2021/10/16 02:50:46;;;;;;;8.80;3.42;;;;;;;;;;5085945;28;20035;-63
2021/10/16 02:53:11;;;;;;;13.15;3.85;;;;;;;;;;5086652;28;20067;-65
2021/10/16 02:55:37;;;;;;;10.88;3.90;;;;;;;;;;5069907;28;20012;-63
2021/10/16 02:58:02;;;;;;;10.75;3.15;;;;;;;;;;5069477;28;20044;-64
2021/10/16 03:00:27;;;;;;;10.85;4.47;;;;;;;;;;5071147;28;20037;-63
2021/10/16 03:02:52;;;;;;;11.90;3.72;;;;;;;;;;5082766;28;20036;-64
2021/10/16 03:05:18;;;;;;;12.13;3.80;;;;;;;;;;5080912;28;20105;-63
2021/10/16 03:07:43;;;;;;;11.15;4.25;;;;;;;;;;5069837;28;20473;-63
2021/10/16 03:10:08;;;;;;;11.73;3.72;;;;;;;;;;5081459;28;20020;-63
2021/10/16 03:12:33;;;;;;;11.73;4.35;;;;;;;;;;5092226;28;20047;-62
2021/10/16 03:14:58;;;;;;;7.97;3.88;;;;;;;;;;5075013;28;20041;-64
2021/10/16 03:17:24;;;;;;;9.33;3.80;;;;;;;;;;5079735;28;20035;-63
2021/10/16 03:19:49;;;;;;;11.80;4.10;;;;;;;;;;5078168;28;20665;-65
2021/10/16 03:22:14;;;;;;;12.70;4.07;;;;;;;;;;5084878;28;20035;-65
2021/10/16 03:24:39;;;;;;;9.13;3.92;;;;;;;;;;5076146;28;20048;-65
2021/10/16 03:27:05;;;;;;;11.77;3.35;;;;;;;;;;5082618;28;20021;-66
2021/10/16 03:29:30;;;;;;;10.75;3.65;;;;;;;;;;5078977;28;20085;-64
2021/10/16 03:31:55;;;;;;;8.85;3.38;;;;;;;;;;5093192;28;20028;-65
2021/10/16 03:34:21;;;;;;;10.57;5.38;;;;;;;;;;5092065;28;20063;-65
2021/10/16 03:36:46;;;;;;;11.30;4.28;;;;;;;;;;5091407;28;20024;-65
2021/10/16 03:39:11;;;;;;;9.73;3.10;;;;;;;;;;5086085;28;20024;-64
2021/10/16 03:41:36;;;;;;;6.38;3.35;;;;;;;;;;5078570;28;20033;-65
2021/10/16 03:44:01;;;;;;;6.30;3.15;;;;;;;;;;5073778;28;20032;-64
2021/10/16 03:46:27;;;;;;;7.15;3.05;;;;;;;;;;5073285;28;20025;-65
2021/10/16 03:48:52;;;;;;;7.25;3.47;;;;;;;;;;5073831;28;20056;-64
2021/10/16 03:51:17;;;;;;;11.20;3.17;;;;;;;;;;5071463;28;20029;-65
2021/10/16 03:53:42;;;;;;;11.55;4.00;;;;;;;;;;5065575;28;20028;-65
2021/10/16 03:56:08;;;;;;;9.25;3.33;;;;;;;;;;5072834;28;20103;-64
2021/10/16 03:58:33;;;;;;;9.75;3.75;;;;;;;;;;5077099;28;20024;-65
2021/10/16 04:01:03;;;;;;;8.82;3.42;;;;;;;;;;5075761;28;20024;-64
2021/10/16 04:03:28;;;;;;;10.25;3.70;;;;;;;;;;5076402;28;20020;-65
2021/10/16 04:05:54;;;;;;;6.47;3.47;;;;;;;;;;5092541;28;20028;-65
2021/10/16 04:08:19;;;;;;;10.65;3.90;;;;;;;;;;5072817;28;20465;-63
2021/10/16 04:10:45;;;;;;;16.20;4.20;;;;;;;;;;5080459;28;20039;-63
2021/10/16 04:13:10;;;;;;;13.65;3.28;;;;;;;;;;5092140;28;20069;-62
2021/10/16 04:15:35;;;;;;;7.28;3.63;;;;;;;;;;5077962;28;20029;-63
2021/10/16 04:18:01;;;;;;;5.67;3.10;;;;;;;;;;5074737;28;20465;-64
2021/10/16 04:20:26;;;;;;;14.32;3.75;;;;;;;;;;5087167;28;20266;-65
2021/10/16 04:22:51;;;;;;;12.43;4.10;;;;;;;;;;5082052;28;20382;-64
2021/10/16 04:25:16;;;;;;;15.57;5.50;;;;;;;;;;5076710;28;20028;-63
2021/10/16 04:27:43;;;;;;;13.70;4.05;;;;;;;;;;5092453;28;20399;-64
2021/10/16 04:30:09;;;;;;;12.23;4.20;;;;;;;;;;5087417;28;20042;-63
2021/10/16 04:32:35;;;;;;;14.15;4.53;;;;;;;;;;5061510;28;20469;-63
2021/10/16 04:35:01;;;;;;;12.90;3.55;;;;;;;;;;5052432;28;20021;-63
2021/10/16 04:37:26;;;;;;;13.07;3.83;;;;;;;;;;5070102;28;20092;-64
2021/10/16 04:39:52;;;;;;;10.60;4.22;;;;;;;;;;5089426;28;20027;-65
2021/10/16 04:42:18;;;;;;;10.20;3.92;;;;;;;;;;5075596;28;20031;-63
2021/10/16 04:44:43;;;;;;;10.55;3.92;;;;;;;;;;5079707;28;20060;-63
2021/10/16 04:47:08;;;;;;;11.85;4.07;;;;;;;;;;5071921;28;20025;-66
2021/10/16 04:49:34;;;;;;;13.07;3.83;;;;;;;;;;5087530;28;20389;-65
2021/10/16 04:51:59;;;;;;;8.65;3.83;;;;;;;;;;5085507;28;20403;-64
2021/10/16 04:54:24;;;;;;;10.60;4.05;;;;;;;;;;5073855;28;20034;-64
2021/10/16 04:56:50;;;;;;;10.18;4.25;;;;;;;;;;5085918;28;20021;-63
2021/10/16 04:59:15;;;;;;;10.47;3.93;;;;;;;;;;5071654;28;20391;-64
2021/10/16 05:01:40;;;;;;;10.52;3.42;;;;;;;;;;5074350;28;20285;-66
2021/10/16 05:04:05;;;;;;;8.20;3.95;;;;;;;;;;5091371;28;20052;-64
2021/10/16 05:06:32;;;;;;;36.13;8.43;;;;;;;;;;5072313;28;20075;-64
2021/10/16 05:08:57;;;;;;;26.88;6.13;;;;;;;;;;5071269;28;20104;-64
2021/10/16 05:11:22;;;;;;;21.90;5.53;;;;;;;;;;5082460;28;20110;-65
2021/10/16 05:13:47;;;;;;;10.90;5.30;;;;;;;;;;5091835;28;20313;-63
2021/10/16 05:16:12;;;;;;;24.25;5.63;;;;;;;;;;5089731;28;20318;-65
2021/10/16 05:18:37;;;;;;;15.35;5.15;;;;;;;;;;5074421;28;20024;-63
2021/10/16 05:21:04;;;;;;;18.27;4.45;;;;;;;;;;5085625;28;20077;-63
2021/10/16 05:23:30;;;;;;;12.40;5.55;;;;;;;;;;5089480;28;20028;-64
2021/10/16 05:25:55;;;;;;;21.02;4.82;;;;;;;;;;5089678;28;20024;-63
2021/10/16 05:28:20;;;;;;;15.13;5.35;;;;;;;;;;5071662;28;20029;-64
2021/10/16 05:30:45;;;;;;;15.63;4.80;;;;;;;;;;5070727;28;20096;-64
2021/10/16 05:33:10;;;;;;;12.73;5.00;;;;;;;;;;5070768;28;20025;-64
2021/10/16 05:35:38;;;;;;;12.13;4.32;;;;;;;;;;5069917;28;20368;-64
2021/10/16 05:38:03;;;;;;;12.35;5.07;;;;;;;;;;5070879;28;20024;-65
2021/10/16 05:40:29;;;;;;;11.27;4.60;;;;;;;;;;5069689;28;20516;-64
2021/10/16 05:42:54;;;;;;;12.32;4.18;;;;;;;;;;5070565;28;20121;-64
2021/10/16 05:45:19;;;;;;;8.68;3.70;;;;;;;;;;5069503;28;20060;-64
2021/10/16 05:47:44;;;;;;;11.10;3.85;;;;;;;;;;5070762;28;20021;-63
2021/10/16 05:50:10;;;;;;;10.90;4.28;;;;;;;;;;5069992;28;21639;-65
2021/10/16 05:52:35;;;;;;;12.52;4.35;;;;;;;;;;5070079;28;20020;-66
2021/10/16 05:55:01;;;;;;;9.45;3.92;;;;;;;;;;5070615;28;20473;-64
2021/10/16 05:57:26;;;;;;;14.65;4.47;;;;;;;;;;5070139;28;20027;-66
2021/10/16 05:59:51;;;;;;;12.68;4.05;;;;;;;;;;5070136;28;20024;-64
2021/10/16 06:02:16;;;;;;;9.00;4.32;;;;;;;;;;5066808;28;20531;-65
2021/10/16 06:04:42;;;;;;;11.70;3.70;;;;;;;;;;5070499;28;20023;-64
2021/10/16 06:07:07;;;;;;;17.25;3.80;;;;;;;;;;5075565;28;20047;-64
2021/10/16 06:09:32;;;;;;;16.77;4.15;;;;;;;;;;5080623;28;20024;-63
2021/10/16 06:11:57;;;;;;;8.75;3.35;;;;;;;;;;5070193;28;20436;-65
2021/10/16 06:14:23;;;;;;;12.18;4.95;;;;;;;;;;5081445;28;20039;-64
2021/10/16 06:16:48;;;;;;;9.93;4.55;;;;;;;;;;5083892;28;20060;-65
2021/10/16 06:19:13;;;;;;;11.20;3.85;;;;;;;;;;5077070;28;20051;-65
2021/10/16 06:21:38;;;;;;;16.23;4.60;;;;;;;;;;5075915;28;20487;-64
2021/10/16 06:24:04;;;;;;;7.97;3.83;;;;;;;;;;5077878;28;20537;-64
2021/10/16 06:26:29;;;;;;;12.95;4.82;;;;;;;;;;5071890;28;20028;-64
2021/10/16 06:28:54;;;;;;;12.15;4.13;;;;;;;;;;5072410;28;20016;-64
2021/10/16 06:31:19;;;;;;;10.68;4.45;;;;;;;;;;5075471;28;20134;-66
2021/10/16 06:33:44;;;;;;;7.75;4.55;;;;;;;;;;5069781;28;20489;-63
2021/10/16 06:36:10;;;;;;;9.73;4.10;;;;;;;;;;5066516;28;20077;-65
2021/10/16 06:38:35;;;;;;;7.25;3.78;;;;;;;;;;5068478;28;20028;-65
2021/10/16 06:41:02;;;;;;;11.25;4.60;;;;;;;;;;5082594;28;20048;-64
2021/10/16 06:43:27;;;;;;;9.60;3.42;;;;;;;;;;5072135;28;20734;-63
2021/10/16 06:45:53;;;;;;;6.38;3.10;;;;;;;;;;5073808;28;20107;-64
2021/10/16 06:48:18;;;;;;;21.13;6.03;;;;;;;;;;5075787;28;20039;-64
2021/10/16 06:50:43;;;;;;;6.18;3.67;;;;;;;;;;5081546;28;20024;-63
2021/10/16 06:53:08;;;;;;;9.82;4.45;;;;;;;;;;5082924;28;20025;-64
2021/10/16 06:55:33;;;;;;;13.63;3.85;;;;;;;;;;5086585;28;20085;-64
2021/10/16 06:57:59;;;;;;;10.23;4.68;;;;;;;;;;5077877;28;20365;-64
2021/10/16 07:00:24;;;;;;;9.35;4.22;;;;;;;;;;5076587;28;20123;-64
2021/10/16 07:02:49;;;;;;;20.50;3.80;;;;;;;;;;5084074;28;20504;-64
2021/10/16 07:05:14;;;;;;;14.95;2.65;;;;;;;;;;5088470;28;20487;-64
2021/10/16 07:07:39;;;;;;;8.98;3.85;;;;;;;;;;5077835;28;20074;-65
2021/10/16 07:10:05;;;;;;;13.38;4.00;;;;;;;;;;5077156;28;20024;-65
2021/10/16 07:12:32;;;;;;;15.85;4.60;;;;;;;;;;5091035;28;20028;-65
2021/10/16 07:14:58;;;;;;;17.40;4.70;;;;;;;;;;5092934;28;20039;-64
2021/10/16 07:17:23;;;;;;;10.27;4.10;;;;;;;;;;5092583;28;20027;-64
2021/10/16 07:19:50;;;;;;;8.10;3.40;;;;;;;;;;5076878;28;20029;-64
2021/10/16 07:22:16;;;;;;;19.27;5.43;;;;;;;;;;5086132;28;20024;-66
2021/10/16 07:24:41;;;;;;;24.70;3.83;;;;;;;;;;5078489;28;20020;-64
2021/10/16 07:27:06;;;;;;;29.98;5.13;;;;;;;;;;5094300;28;20033;-64
2021/10/16 07:29:31;;;;;;;31.70;5.03;;;;;;;;;;5076930;28;20019;-66
2021/10/16 07:31:56;;;;;;;8.43;2.17;;;;;;;;;;5081461;28;20594;-64
2021/10/16 07:34:22;;;;;;;19.63;5.10;;;;;;;;;;5082762;28;20032;-66
2021/10/16 07:36:47;;;;;;;11.23;5.38;;;;;;;;;;5058972;28;20115;-64
2021/10/16 07:39:12;;;;;;;15.68;4.00;;;;;;;;;;5076286;28;20029;-65
2021/10/16 07:41:38;;;;;;;18.02;5.18;;;;;;;;;;5092156;28;20024;-64
2021/10/16 07:44:04;;;;;;;15.07;5.63;;;;;;;;;;5094349;28;20028;-64
2021/10/16 07:46:29;;;;;;;12.07;6.07;;;;;;;;;;5076543;28;20135;-64
2021/10/16 07:48:54;;;;;;;11.35;3.15;;;;;;;;;;5077456;28;20446;-64
2021/10/16 07:51:20;;;;;;;11.35;5.30;;;;;;;;;;5076306;28;20039;-65
2021/10/16 07:53:45;;;;;;;12.35;4.95;;;;;;;;;;5078648;28;20032;-64
2021/10/16 07:56:10;;;;;;;7.15;2.75;;;;;;;;;;5079497;28;20024;-64
2021/10/16 07:58:39;;;;;;;11.13;4.82;;;;;;;;;;5058591;28;20489;-64
2021/10/16 08:01:04;;;;;;;5.95;2.70;;;;;;;;;;5071132;28;20059;-64
2021/10/16 08:03:29;;;;;;;5.97;2.50;;;;;;;;;;5081508;28;20496;-63
2021/10/16 08:05:55;;;;;;;10.05;4.88;;;;;;;;;;5087328;28;20388;-65
2021/10/16 08:08:20;;;;;;;11.55;4.72;;;;;;;;;;5091379;28;20032;-64
2021/10/16 08:10:45;;;;;;;9.63;2.78;;;;;;;;;;5079681;28;20111;-65
2021/10/16 08:13:10;;;;;;;17.58;5.97;;;;;;;;;;5080234;28;20023;-63
2021/10/16 08:15:35;;;;;;;8.50;2.80;;;;;;;;;;5073175;28;20032;-64
2021/10/16 08:18:01;;;;;;;18.55;5.97;;;;;;;;;;5078918;28;20020;-64
2021/10/16 08:20:27;;;;;;;17.13;5.32;;;;;;;;;;5074303;28;20028;-64
2021/10/16 08:22:52;;;;;;;12.07;5.85;;;;;;;;;;5080690;28;20032;-64
2021/10/16 08:25:17;;;;;;;13.95;6.10;;;;;;;;;;5080977;28;20016;-65
2021/10/16 08:27:46;;;;;;;12.60;6.85;;;;;;;;;;5072653;28;20465;-65
2021/10/16 08:30:11;;;;;;;15.50;7.28;;;;;;;;;;5073696;28;20402;-65
2021/10/16 08:32:37;;;;;;;11.57;6.97;;;;;;;;;;5086399;28;20059;-65
2021/10/16 08:35:02;;;;;;;21.83;7.50;;;;;;;;;;5060827;28;20519;-64
2021/10/16 08:37:27;;;;;;;19.20;7.18;;;;;;;;;;5052333;28;20021;-64
2021/10/16 08:39:53;;;;;;;15.77;7.50;;;;;;;;;;5057102;28;20028;-64
2021/10/16 08:42:18;;;;;;;15.85;7.63;;;;;;;;;;5091566;28;20024;-66
2021/10/16 08:44:44;;;;;;;13.70;6.72;;;;;;;;;;5077395;28;20029;-64
2021/10/16 08:47:10;;;;;;;16.55;7.22;;;;;;;;;;5089491;28;20027;-64
2021/10/16 08:49:37;;;;;;;7.80;4.43;;;;;;;;;;5090447;28;20012;-64
2021/10/16 08:52:02;;;;;;;14.50;7.05;;;;;;;;;;5082321;28;20504;-66
2021/10/16 08:54:28;;;;;;;16.35;7.22;;;;;;;;;;5077849;28;20103;-64
2021/10/16 08:56:53;;;;;;;13.50;7.93;;;;;;;;;;5090319;28;20073;-63
2021/10/16 08:59:18;;;;;;;16.30;8.17;;;;;;;;;;5077513;28;20035;-64
2021/10/16 09:01:53;;;;;;;16.73;7.88;;;;;;;;;;5072109;28;20312;-65
2021/10/16 09:04:21;;;;;;;17.92;7.65;;;;;;;;;;5083297;28;20039;-64
2021/10/16 09:06:47;;;;;;;22.58;8.65;;;;;;;;;;5086755;28;20476;-64
2021/10/16 09:09:12;;;;;;;20.55;8.30;;;;;;;;;;5090007;28;20031;-64
2021/10/16 09:11:39;;;;;;;13.48;7.78;;;;;;;;;;5079351;28;20074;-66
2021/10/16 09:14:08;;;;;;;18.90;8.02;;;;;;;;;;5079765;28;20107;-65
2021/10/16 09:16:43;;;;;;;16.80;7.07;;;;;;;;;;5065697;28;20024;-65
2021/10/16 09:19:10;;;;;;;13.23;8.20;;;;;;;;;;5051739;28;20478;-65
2021/10/16 09:21:37;;;;;;;13.32;8.15;;;;;;;;;;5071134;28;20029;-65
2021/10/16 09:24:05;;;;;;;13.93;9.32;;;;;;;;;;5071049;28;20040;-65
2021/10/16 09:26:31;;;;;;;22.42;9.63;;;;;;;;;;5070772;28;20028;-64
2021/10/16 09:28:57;;;;;;;12.88;7.35;;;;;;;;;;5067762;28;20070;-65
2021/10/16 09:31:26;;;;;;;16.55;8.48;;;;;;;;;;5067980;28;20037;-65
2021/10/16 09:33:51;;;;;;;11.75;5.07;;;;;;;;;;5060717;28;20032;-67
2021/10/16 09:36:21;;;;;;;17.30;7.90;;;;;;;;;;5064529;28;20093;-68
2021/10/16 09:38:46;;;;;;;16.88;8.07;;;;;;;;;;5063785;28;20266;-65
2021/10/16 09:41:22;;;;;;;16.13;7.95;;;;;;;;;;5062919;28;20539;-65
2021/10/16 09:43:47;;;;;;;9.93;5.47;;;;;;;;;;5067447;28;20435;-64
2021/10/16 09:46:13;;;;;;;15.33;7.70;;;;;;;;;;5067638;28;20055;-65
2021/10/16 09:48:38;;;;;;;16.02;7.55;;;;;;;;;;5068564;28;20267;-67
2021/10/16 09:51:03;;;;;;;15.07;5.38;;;;;;;;;;5068428;28;20507;-65
2021/10/16 09:53:29;;;;;;;18.43;9.73;;;;;;;;;;5063635;28;20074;-67
2021/10/16 09:55:54;;;;;;;25.40;9.73;;;;;;;;;;5066790;28;20270;-65
2021/10/16 09:58:22;;;;;;;30.10;10.15;;;;;;;;;;5059130;28;20031;-65
2021/10/16 10:00:47;;;;;;;21.20;11.27;;;;;;;;;;5068615;28;20192;-67
2021/10/16 10:03:13;;;;;;;18.17;8.27;;;;;;;;;;5067843;28;20444;-65
2021/10/16 10:05:39;;;;;;;24.10;11.13;;;;;;;;;;5068622;28;20317;-65
2021/10/16 10:08:04;;;;;;;20.40;10.48;;;;;;;;;;5068595;28;20008;-65
2021/10/16 10:10:31;;;;;;;22.58;12.68;;;;;;;;;;5063488;28;20090;-66
2021/10/16 10:12:56;;;;;;;25.75;10.93;;;;;;;;;;5067385;28;20031;-66
2021/10/16 10:15:21;;;;;;;17.05;10.93;;;;;;;;;;5071561;28;20131;-66
2021/10/16 10:17:47;;;;;;;25.55;12.77;;;;;;;;;;5063535;28;20049;-65
2021/10/16 10:20:13;;;;;;;26.23;12.82;;;;;;;;;;5066701;28;20024;-64
2021/10/16 10:22:40;;;;;;;27.60;13.48;;;;;;;;;;5070074;28;20025;-65
2021/10/16 10:25:26;;;;;;;21.77;12.35;;;;;;;;;;5070153;28;20028;-67
2021/10/16 10:27:52;;;;;;;28.00;12.38;;;;;;;;;;5069133;28;20036;-65
2021/10/16 10:30:36;;;;;;;24.05;11.90;;;;;;;;;;5070191;28;20095;-67
2021/10/16 10:33:21;;;;;;;22.80;10.32;;;;;;;;;;5069930;28;20024;-66
2021/10/16 10:35:48;;;;;;;29.98;14.18;;;;;;;;;;5069199;28;20039;-66
2021/10/16 10:38:32;;;;;;;24.92;11.98;;;;;;;;;;5066865;28;20565;-66
2021/10/16 10:40:57;;;;;;;24.77;11.75;;;;;;;;;;5067372;28;20024;-65
2021/10/16 10:43:38;;;;;;;21.27;11.95;;;;;;;;;;5069441;28;20361;-65
2021/10/16 10:46:08;;;;;;;23.90;12.05;;;;;;;;;;5065322;28;20021;-65
2021/10/16 10:48:46;;;;;;;28.45;11.77;;;;;;;;;;5064822;28;20078;-66
2021/10/16 10:51:28;;;;;;;20.42;12.18;;;;;;;;;;5069748;28;20396;-65
2021/10/16 10:54:08;;;;;;;20.70;10.70;;;;;;;;;;5070070;28;20017;-66
2021/10/16 10:56:38;;;;;;;23.73;12.18;;;;;;;;;;5064869;28;20024;-66
2021/10/16 10:59:04;;;;;;;28.13;12.85;;;;;;;;;;5069490;28;20029;-67
2021/10/16 11:01:41;;;;;;;24.23;11.27;;;;;;;;;;5069653;28;20023;-65
2021/10/16 11:04:06;;;;;;;19.55;12.00;;;;;;;;;;5069319;28;20366;-64
2021/10/16 11:06:32;;;;;;;26.67;13.75;;;;;;;;;;5062807;28;20023;-66
2021/10/16 11:09:12;;;;;;;30.33;11.60;;;;;;;;;;5064974;28;20024;-65
2021/10/16 11:11:47;;;;;;;31.38;12.85;;;;;;;;;;5069865;28;20024;-66
2021/10/16 11:14:13;;;;;;;19.75;8.07;;;;;;;;;;5069521;28;20032;-65
2021/10/16 11:17:01;;;;;;;30.15;11.48;;;;;;;;;;5069658;28;20074;-65
2021/10/16 11:19:27;;;;;;;25.20;10.90;;;;;;;;;;5069631;28;20139;-67
2021/10/16 11:21:53;;;;;;;33.33;13.35;;;;;;;;;;5062550;28;20116;-66
2021/10/16 11:24:19;;;;;;;29.52;11.45;;;;;;;;;;5064483;28;20453;-66
2021/10/16 11:26:57;;;;;;;26.27;10.75;;;;;;;;;;5069755;28;20023;-66
2021/10/16 11:29:28;;;;;;;27.35;12.70;;;;;;;;;;5067221;28;20381;-66
2021/10/16 11:32:12;;;;;;;23.65;12.85;;;;;;;;;;5057478;28;20021;-66
2021/10/16 11:34:37;;;;;;;26.27;11.48;;;;;;;;;;5073383;28;20017;-66
2021/10/16 11:37:03;;;;;;;33.72;13.73;;;;;;;;;;5073368;28;20020;-69
2021/10/16 11:39:29;;;;;;;30.20;15.23;;;;;;;;;;5069197;28;20020;-66
2021/10/16 11:41:55;;;;;;;34.53;15.88;;;;;;;;;;5067963;28;20549;-66
2021/10/16 11:44:20;;;;;;;34.97;16.95;;;;;;;;;;5072969;28;20029;-65
2021/10/16 11:46:55;;;;;;;46.43;17.43;;;;;;;;;;5071632;28;20074;-66
2021/10/16 11:49:22;;;;;;;32.30;13.80;;;;;;;;;;5072666;28;20766;-66
2021/10/16 11:51:48;;;;;;;30.00;10.77;;;;;;;;;;5073572;28;20060;-68
2021/10/16 11:54:17;;;;;;;22.10;10.40;;;;;;;;;;5066887;28;20052;-68
2021/10/16 11:56:42;;;;;;;23.05;11.05;;;;;;;;;;5070132;28;20305;-66
2021/10/16 11:59:08;;;;;;;33.67;12.18;;;;;;;;;;5074745;28;20322;-67
2021/10/16 12:01:43;;;;;;;35.85;12.93;;;;;;;;;;5080827;28;20025;-67
2021/10/16 12:04:11;;;;;;;22.40;8.20;;;;;;;;;;5078722;28;22016;-68
2021/10/16 12:06:36;;;;;;;27.95;8.70;;;;;;;;;;5069511;28;20020;-68
2021/10/16 12:09:02;;;;;;;25.80;8.98;;;;;;;;;;5078076;28;20380;-65
2021/10/16 12:11:32;;;;;;;23.77;8.88;;;;;;;;;;5071715;28;20115;-67
2021/10/16 12:14:00;;;;;;;29.70;7.80;;;;;;;;;;5072548;28;20058;-68
2021/10/16 12:16:32;;;;;;;22.38;8.00;;;;;;;;;;5072786;28;20020;-68
2021/10/16 12:19:02;;;;;;;16.40;3.63;;;;;;;;;;5072827;28;20020;-68
2021/10/16 12:21:34;;;;;;;27.33;5.78;;;;;;;;;;5072534;28;20046;-68
2021/10/16 12:24:01;;;;;;;18.33;6.13;;;;;;;;;;5072052;28;20024;-68
2021/10/16 12:26:33;;;;;;;23.30;3.72;;;;;;;;;;5072491;28;20032;-68
2021/10/16 12:28:59;;;;;;;17.27;4.20;;;;;;;;;;5072147;28;20016;-68
2021/10/16 12:31:24;;;;;;;22.58;4.78;;;;;;;;;;5072103;28;20106;-66
2021/10/16 12:33:56;;;;;;;14.73;3.95;;;;;;;;;;5071501;28;20102;-67
2021/10/16 12:36:26;;;;;;;18.60;3.63;;;;;;;;;;5072152;28;20055;-67
2021/10/16 12:38:51;;;;;;;17.35;4.63;;;;;;;;;;5072400;28;20473;-66
2021/10/16 12:41:32;;;;;;;21.83;5.80;;;;;;;;;;5071579;28;20027;-68
2021/10/16 12:44:10;;;;;;;20.00;5.40;;;;;;;;;;5071565;28;20070;-67
2021/10/16 12:46:35;;;;;;;16.42;5.00;;;;;;;;;;5072190;28;20408;-67
2021/10/16 12:49:00;;;;;;;19.67;4.72;;;;;;;;;;5072248;28;20019;-67
2021/10/16 12:51:40;;;;;;;17.50;4.87;;;;;;;;;;5068408;28;20034;-67
2021/10/16 12:54:05;;;;;;;13.48;3.35;;;;;;;;;;5070525;28;20581;-67
2021/10/16 12:56:30;;;;;;;15.60;4.07;;;;;;;;;;5081645;28;20469;-67
2021/10/16 12:58:56;;;;;;;15.75;3.30;;;;;;;;;;5070854;28;20029;-66
2021/10/16 13:01:21;;;;;;;15.20;3.25;;;;;;;;;;5070068;28;20473;-67
2021/10/16 13:03:47;;;;;;;19.93;3.90;;;;;;;;;;5071220;28;20024;-67
2021/10/16 13:06:12;;;;;;;12.75;3.25;;;;;;;;;;5071609;28;20263;-66
2021/10/16 13:08:37;;;;;;;16.80;3.60;;;;;;;;;;5069681;28;20027;-68
2021/10/16 13:11:02;;;;;;;14.60;2.85;;;;;;;;;;5071790;28;20270;-67
2021/10/16 13:13:28;;;;;;;17.92;3.03;;;;;;;;;;5071202;28;20026;-68
2021/10/16 13:15:53;;;;;;;6.67;1.90;;;;;;;;;;5067446;28;20031;-67
2021/10/16 13:18:18;;;;;;;11.03;1.97;;;;;;;;;;5062920;28;20666;-67
2021/10/16 13:20:43;;;;;;;13.88;2.70;;;;;;;;;;5071284;28;20270;-67
2021/10/16 13:23:08;;;;;;;11.27;2.70;;;;;;;;;;5071339;28;20024;-67
2021/10/16 13:25:37;;;;;;;14.73;2.80;;;;;;;;;;5071309;28;20368;-68
2021/10/16 13:28:02;;;;;;;18.65;2.22;;;;;;;;;;5070185;28;20755;-66
2021/10/16 13:30:27;;;;;;;8.55;2.50;;;;;;;;;;5071040;28;20036;-66
2021/10/16 13:32:53;;;;;;;15.23;3.58;;;;;;;;;;5070467;28;20036;-67
2021/10/16 13:35:18;;;;;;;15.68;2.58;;;;;;;;;;5061864;28;20031;-66
2021/10/16 13:37:43;;;;;;;27.65;4.90;;;;;;;;;;5078364;28;20031;-65
2021/10/16 13:40:09;;;;;;;12.73;2.33;;;;;;;;;;5079395;28;20020;-67
2021/10/16 13:42:36;;;;;;;15.80;2.88;;;;;;;;;;5072588;28;20038;-65
2021/10/16 13:45:01;;;;;;;11.82;2.55;;;;;;;;;;5070925;28;20016;-66
2021/10/16 13:47:26;;;;;;;13.10;2.90;;;;;;;;;;5070290;28;20092;-66
2021/10/16 13:49:52;;;;;;;15.70;2.63;;;;;;;;;;5070542;28;20062;-67
2021/10/16 13:52:17;;;;;;;17.40;3.30;;;;;;;;;;5070396;28;20727;-66
2021/10/16 13:54:42;;;;;;;14.07;3.03;;;;;;;;;;5070124;28;20036;-66
2021/10/16 13:57:07;;;;;;;26.33;3.30;;;;;;;;;;5070181;28;20074;-67
2021/10/16 13:59:32;;;;;;;15.23;2.90;;;;;;;;;;5070975;28;20107;-66
2021/10/16 14:01:58;;;;;;;13.53;2.63;;;;;;;;;;5070693;28;20025;-67
2021/10/16 14:04:23;;;;;;;17.30;3.78;;;;;;;;;;5070915;28;20251;-66
2021/10/16 14:06:48;;;;;;;14.23;3.17;;;;;;;;;;5065811;28;20095;-66
2021/10/16 14:09:13;;;;;;;17.73;3.10;;;;;;;;;;5070624;28;20032;-67
2021/10/16 14:11:39;;;;;;;13.90;2.90;;;;;;;;;;5070861;28;20247;-65
2021/10/16 14:14:04;;;;;;;16.97;3.43;;;;;;;;;;5070350;28;20324;-67
2021/10/16 14:16:29;;;;;;;11.90;2.23;;;;;;;;;;5070601;28;20271;-66
2021/10/16 14:18:54;;;;;;;13.30;2.80;;;;;;;;;;5070623;28;20262;-67
2021/10/16 14:21:21;;;;;;;13.25;3.63;;;;;;;;;;5070434;28;20048;-65
2021/10/16 14:23:47;;;;;;;12.20;2.92;;;;;;;;;;5070699;28;20465;-66
2021/10/16 14:26:12;;;;;;;14.95;3.13;;;;;;;;;;5070377;28;20035;-66